createdAt,value
2018-03-16T00:01:41.189Z,81.80
2018-03-16T00:04:07.324Z,64.47
2018-03-16T00:06:33.463Z,76.53
2018-03-16T00:08:59.604Z,89.73
2018-03-16T00:11:25.740Z,83.40
2018-03-16T00:13:51.873Z,77.73
2018-03-16T00:16:18.005Z,89.40
2018-03-16T00:18:44.133Z,65.47
2018-03-16T00:21:11.025Z,84.83
2018-03-16T00:23:37.148Z,88.57
2018-03-16T00:26:03.272Z,81.97
2018-03-16T00:28:36.546Z,83.27
2018-03-16T00:31:02.678Z,80.90
2018-03-16T00:33:28.809Z,86.50
2018-03-16T00:35:54.946Z,86.93
2018-03-16T00:38:21.087Z,82.60
2018-03-16T00:40:47.226Z,81.83
2018-03-16T00:43:13.353Z,81.37
2018-03-16T00:45:39.497Z,80.93
2018-03-16T00:48:05.626Z,77.80
2018-03-16T00:50:31.754Z,83.77
2018-03-16T00:52:57.893Z,74.40
2018-03-16T00:55:24.029Z,78.67
2018-03-16T00:57:50.186Z,83.67
2018-03-16T01:00:16.310Z,81.03
2018-03-16T01:02:42.452Z,77.87
2018-03-16T01:05:08.583Z,76.47
2018-03-16T01:07:34.712Z,78.73
2018-03-16T01:10:00.842Z,76.00
2018-03-16T01:12:26.972Z,82.73
2018-03-16T01:14:53.849Z,76.60
2018-03-16T01:17:19.985Z,76.90
2018-03-16T01:19:46.147Z,81.00
2018-03-16T01:22:12.283Z,73.40
2018-03-16T01:24:38.417Z,79.67
2018-03-16T01:27:04.532Z,70.83
2018-03-16T01:29:30.686Z,69.67
2018-03-16T01:31:56.813Z,76.83
2018-03-16T01:34:22.947Z,75.97
2018-03-16T01:36:49.060Z,70.83
2018-03-16T01:39:15.931Z,66.90
2018-03-16T01:41:42.061Z,76.50
2018-03-16T01:44:08.970Z,75.70
2018-03-16T01:46:35.072Z,82.97
2018-03-16T01:49:01.196Z,76.83
2018-03-16T01:51:28.069Z,78.97
2018-03-16T01:53:54.192Z,81.07
2018-03-16T01:56:21.053Z,79.20
2018-03-16T01:58:47.170Z,80.07
2018-03-16T02:01:13.293Z,76.33
2018-03-16T02:03:39.408Z,75.13
2018-03-16T02:06:05.532Z,79.97
2018-03-16T02:08:31.641Z,78.50
2018-03-16T02:10:58.509Z,81.10
2018-03-16T02:13:24.621Z,75.97
2018-03-16T02:15:51.481Z,76.50
2018-03-16T02:18:18.341Z,82.77
2018-03-16T02:20:45.192Z,80.97
2018-03-16T02:23:12.057Z,79.20
2018-03-16T02:25:38.166Z,81.27
2018-03-16T02:28:04.297Z,78.47
2018-03-16T02:30:30.410Z,77.07
2018-03-16T02:32:56.539Z,81.57
2018-03-16T02:35:22.664Z,84.23
2018-03-16T02:37:48.795Z,75.63
2018-03-16T02:40:14.897Z,82.30
2018-03-16T02:42:41.020Z,83.07
2018-03-16T02:45:07.138Z,80.70
2018-03-16T02:47:33.250Z,79.23
2018-03-16T02:49:59.366Z,85.17
2018-03-16T02:52:26.237Z,79.13
2018-03-16T02:54:52.358Z,82.43
2018-03-16T02:57:19.232Z,85.03
2018-03-16T02:59:45.358Z,82.03
2018-03-16T03:02:12.217Z,87.03
2018-03-16T03:04:39.069Z,78.63
2018-03-16T03:07:05.922Z,73.57
2018-03-16T03:09:32.781Z,87.33
2018-03-16T03:11:59.650Z,85.77
2018-03-16T03:14:25.769Z,78.10
2018-03-16T03:16:52.620Z,80.60
2018-03-16T03:19:19.477Z,89.50
2018-03-16T03:21:45.589Z,81.60
2018-03-16T03:24:11.705Z,92.37
2018-03-16T03:26:37.829Z,85.67
2018-03-16T03:29:03.942Z,84.33
2018-03-16T03:31:30.813Z,84.90
2018-03-16T03:33:56.933Z,86.97
2018-03-16T03:36:23.785Z,84.83
2018-03-16T03:38:50.665Z,84.77
2018-03-16T03:41:16.780Z,89.57
2018-03-16T03:43:43.637Z,88.23
2018-03-16T03:46:10.505Z,91.57
2018-03-16T03:48:36.608Z,86.90
2018-03-16T03:51:02.729Z,85.37
2018-03-16T03:53:28.864Z,88.63
2018-03-16T03:55:54.988Z,84.80
2018-03-16T03:58:21.117Z,89.33
2018-03-16T04:00:47.233Z,89.37
2018-03-16T04:03:13.353Z,81.47
2018-03-16T04:05:40.213Z,90.90
2018-03-16T04:08:06.371Z,87.73
2018-03-16T04:10:33.208Z,85.57
2018-03-16T04:13:00.070Z,92.13
2018-03-16T04:15:26.920Z,92.50
2018-03-16T04:17:53.790Z,92.67
2018-03-16T04:20:19.916Z,86.03
2018-03-16T04:22:46.810Z,89.80
2018-03-16T04:25:12.925Z,87.43
2018-03-16T04:27:39.042Z,91.17
2018-03-16T04:30:05.899Z,94.30
2018-03-16T04:32:32.762Z,88.30
2018-03-16T04:34:59.634Z,84.93
2018-03-16T04:37:25.753Z,86.13
2018-03-16T04:39:52.629Z,92.17
2018-03-16T04:42:18.736Z,92.90
2018-03-16T04:44:45.587Z,85.80
2018-03-16T04:47:11.693Z,95.60
2018-03-16T04:49:37.829Z,91.50
2018-03-16T04:52:03.973Z,97.47
2018-03-16T04:54:30.105Z,89.43
2018-03-16T04:56:56.241Z,92.40
2018-03-16T04:59:22.369Z,92.03
2018-03-16T05:01:48.509Z,90.03
2018-03-16T05:04:14.634Z,88.20
2018-03-16T05:06:40.794Z,92.27
2018-03-16T05:09:06.917Z,94.23
2018-03-16T05:11:33.052Z,104.63
2018-03-16T05:13:59.182Z,97.13
2018-03-16T05:16:25.341Z,100.93
2018-03-16T05:18:51.480Z,79.23
2018-03-16T05:21:17.617Z,90.07
2018-03-16T05:23:43.741Z,98.13
2018-03-16T05:26:09.861Z,98.43
2018-03-16T05:28:36.728Z,98.57
2018-03-16T05:31:02.891Z,94.97
2018-03-16T05:33:29.038Z,93.20
2018-03-16T05:35:55.177Z,96.23
2018-03-16T05:38:21.309Z,90.90
2018-03-16T05:40:47.435Z,94.97
2018-03-16T05:43:13.579Z,93.50
2018-03-16T05:45:39.697Z,91.00
2018-03-16T05:48:05.845Z,86.10
2018-03-16T05:50:31.960Z,88.13
2018-03-16T05:52:58.816Z,92.27
2018-03-16T05:55:25.684Z,84.30
2018-03-16T05:57:51.806Z,85.10
2018-03-16T06:00:18.693Z,78.53
2018-03-16T06:02:44.821Z,81.50
2018-03-16T06:05:10.950Z,82.70
2018-03-16T06:07:37.812Z,93.77
2018-03-16T06:10:03.952Z,75.40
2018-03-16T06:12:30.108Z,84.10
2018-03-16T06:14:56.241Z,75.20
2018-03-16T06:17:22.377Z,87.03
2018-03-16T06:19:48.545Z,79.90
2018-03-16T06:22:14.672Z,81.33
2018-03-16T06:24:40.810Z,78.47
2018-03-16T06:27:06.936Z,86.53
2018-03-16T06:29:33.079Z,83.77
2018-03-16T06:31:59.229Z,67.30
2018-03-16T06:34:25.345Z,77.93
2018-03-16T06:36:51.472Z,87.73
2018-03-16T06:39:18.393Z,84.63
2018-03-16T06:41:44.498Z,81.70
2018-03-16T06:44:10.623Z,78.97
2018-03-16T06:46:36.752Z,82.07
2018-03-16T06:49:02.876Z,53.50
2018-03-16T06:51:29.748Z,68.67
2018-03-16T06:53:55.884Z,80.53
2018-03-16T06:56:22.013Z,83.07
2018-03-16T06:58:48.139Z,77.17
2018-03-16T07:01:15.001Z,82.50
2018-03-16T07:03:56.202Z,80.43
2018-03-16T07:12:26.944Z,80.97
2018-03-16T07:17:54.769Z,88.03
2018-03-16T07:20:48.098Z,75.43
2018-03-16T07:29:31.009Z,60.43
2018-03-16T07:32:11.086Z,51.10
2018-03-16T07:34:37.216Z,73.90
2018-03-16T07:37:17.290Z,70.80
2018-03-16T07:39:44.470Z,72.77
2018-03-16T07:42:10.610Z,70.37
2018-03-16T07:44:51.269Z,59.80
2018-03-16T07:47:31.845Z,58.33
2018-03-16T07:50:12.621Z,60.80
2018-03-16T07:55:45.470Z,58.00
2018-03-16T07:58:13.664Z,62.97
2018-03-16T08:03:47.347Z,53.03
2018-03-16T08:06:27.559Z,61.97
2018-03-16T08:12:21.776Z,62.17
2018-03-16T08:20:51.110Z,60.80
2018-03-16T08:26:37.166Z,52.50
2018-03-16T08:29:03.275Z,58.77
2018-03-16T08:31:34.340Z,49.37
2018-03-16T08:37:02.278Z,54.57
2018-03-16T08:39:55.797Z,50.57
2018-03-16T08:42:43.502Z,48.30
2018-03-16T08:48:17.083Z,55.60
2018-03-16T08:53:53.802Z,57.60
2018-03-16T08:56:25.631Z,50.90
2018-03-16T08:59:15.955Z,58.03
2018-03-16T09:02:14.606Z,33.80
2018-03-16T09:05:12.693Z,61.13
2018-03-16T09:08:01.413Z,59.83
2018-03-16T09:10:43.085Z,62.23
2018-03-16T09:13:12.022Z,63.77
2018-03-16T09:15:55.949Z,67.60
2018-03-16T09:18:22.090Z,60.47
2018-03-16T09:20:51.022Z,77.73
2018-03-16T09:23:17.150Z,76.17
2018-03-16T09:25:43.296Z,70.07
2018-03-16T09:28:09.419Z,60.03
2018-03-16T09:30:35.537Z,68.77
2018-03-16T09:33:02.380Z,70.70
2018-03-16T09:35:28.493Z,69.10
2018-03-16T09:37:54.618Z,58.00
2018-03-16T09:40:20.734Z,63.63
2018-03-16T09:42:46.858Z,68.37
2018-03-16T09:45:12.974Z,60.57
2018-03-16T09:47:39.851Z,70.37
2018-03-16T09:50:06.713Z,75.07
2018-03-16T09:52:32.853Z,66.00
2018-03-16T09:55:17.621Z,75.63
2018-03-16T09:57:44.476Z,66.10
2018-03-16T10:00:11.333Z,64.27
2018-03-16T10:02:38.229Z,61.50
2018-03-16T10:05:04.425Z,61.17
2018-03-16T10:07:31.301Z,56.53
2018-03-16T10:09:57.433Z,59.77
2018-03-16T10:12:23.562Z,59.80
2018-03-16T10:14:49.697Z,62.27
2018-03-16T10:17:16.822Z,54.23
2018-03-16T10:19:44.433Z,75.27
2018-03-16T10:22:10.570Z,56.30
2018-03-16T10:24:37.441Z,60.13
2018-03-16T10:27:03.562Z,68.03
2018-03-16T10:29:29.689Z,67.50
2018-03-16T10:31:56.573Z,68.83
2018-03-16T10:34:22.704Z,59.90
2018-03-16T10:36:48.855Z,58.97
2018-03-16T10:39:14.981Z,64.63
2018-03-16T10:41:41.113Z,68.53
2018-03-16T10:44:41.542Z,65.07
2018-03-16T10:47:08.417Z,66.60
2018-03-16T10:49:35.294Z,55.97
2018-03-16T10:52:01.441Z,52.17
2018-03-16T10:54:27.577Z,52.83
2018-03-16T10:56:53.706Z,43.80
2018-03-16T10:59:19.830Z,66.10
2018-03-16T11:01:52.077Z,50.93
2018-03-16T11:04:18.218Z,51.17
2018-03-16T11:06:46.336Z,58.90
2018-03-16T11:09:12.464Z,53.00
2018-03-16T11:11:39.346Z,55.53
2018-03-16T11:14:05.490Z,60.27
2018-03-16T11:16:31.616Z,48.77
2018-03-16T11:18:57.749Z,51.30
2018-03-16T11:21:23.890Z,45.67
2018-03-16T11:23:50.029Z,48.00
2018-03-16T11:26:19.462Z,52.77
2018-03-16T11:28:45.586Z,49.07
2018-03-16T11:31:11.726Z,56.77
2018-03-16T11:33:37.881Z,49.60
2018-03-16T11:36:04.000Z,52.77
2018-03-16T11:38:30.132Z,59.43
2018-03-16T11:40:57.009Z,48.33
2018-03-16T11:43:23.129Z,68.00
2018-03-16T11:45:49.260Z,55.70
2018-03-16T11:48:16.138Z,53.83
2018-03-16T11:50:42.265Z,52.67
2018-03-16T11:53:08.405Z,43.73
2018-03-16T11:55:34.529Z,58.30
2018-03-16T11:58:01.397Z,55.07
2018-03-16T12:00:27.525Z,47.20
2018-03-16T12:02:54.385Z,52.60
2018-03-16T12:05:21.285Z,55.43
2018-03-16T12:07:47.396Z,49.30
2018-03-16T12:10:13.521Z,45.63
2018-03-16T12:12:39.640Z,50.93
2018-03-16T12:15:06.510Z,37.77
2018-03-16T12:17:32.663Z,52.63
2018-03-16T12:19:58.805Z,44.97
2018-03-16T12:22:24.946Z,43.07
2018-03-16T12:24:51.074Z,38.13
2018-03-16T12:27:17.233Z,34.60
2018-03-16T12:29:43.378Z,54.07
2018-03-16T12:32:09.517Z,42.93
2018-03-16T12:34:35.641Z,47.83
2018-03-16T12:37:01.773Z,47.60
2018-03-16T12:39:27.922Z,41.10
2018-03-16T12:41:54.054Z,41.33
2018-03-16T12:44:20.181Z,34.40
2018-03-16T12:46:46.312Z,45.67
2018-03-16T12:49:12.457Z,42.73
2018-03-16T12:51:42.226Z,47.87
2018-03-16T12:54:04.742Z,39.07
2018-03-16T12:56:30.849Z,42.80
2018-03-16T12:58:57.709Z,39.37
2018-03-16T13:01:24.566Z,42.63
2018-03-16T13:03:51.423Z,38.87
2018-03-16T13:06:18.281Z,39.73
2018-03-16T13:08:45.145Z,38.07
2018-03-16T13:11:11.273Z,38.83
2018-03-16T13:13:38.129Z,41.03
2018-03-16T13:16:04.989Z,40.57
2018-03-16T13:18:31.837Z,41.27
2018-03-16T13:20:57.949Z,39.97
2018-03-16T13:23:24.087Z,38.33
2018-03-16T13:25:50.214Z,39.53
2018-03-16T13:28:16.337Z,34.20
2018-03-16T13:30:42.453Z,41.10
2018-03-16T13:33:08.579Z,36.77
2018-03-16T13:35:38.300Z,34.23
2018-03-16T13:38:05.144Z,33.77
2018-03-16T13:40:31.998Z,37.47
2018-03-16T13:42:58.884Z,36.43
2018-03-16T13:45:24.988Z,35.87
2018-03-16T13:47:51.849Z,41.97
2018-03-16T13:50:18.718Z,37.67
2018-03-16T13:52:44.871Z,35.13
2018-03-16T13:55:11.008Z,35.00
2018-03-16T13:57:37.128Z,39.67
2018-03-16T14:00:03.990Z,43.63
2018-03-16T14:02:30.126Z,41.60
2018-03-16T14:04:56.274Z,42.67
2018-03-16T14:07:22.397Z,43.90
2018-03-16T14:09:49.270Z,36.23
2018-03-16T14:12:15.397Z,40.40
2018-03-16T14:14:41.565Z,37.30
2018-03-16T14:17:07.687Z,35.87
2018-03-16T14:19:33.823Z,36.77
2018-03-16T14:21:59.944Z,37.10
2018-03-16T14:24:26.810Z,37.47
2018-03-16T14:26:52.932Z,32.80
2018-03-16T14:29:19.802Z,36.63
2018-03-16T14:31:45.928Z,38.17
2018-03-16T14:34:12.851Z,40.20
2018-03-16T14:36:38.953Z,37.10
2018-03-16T14:39:05.069Z,41.43
2018-03-16T14:41:31.940Z,36.53
2018-03-16T14:43:58.066Z,37.53
2018-03-16T14:46:24.222Z,40.03
2018-03-16T14:48:50.352Z,40.33
2018-03-16T14:51:16.480Z,38.20
2018-03-16T14:53:43.342Z,35.53
2018-03-16T14:56:09.456Z,38.43
2018-03-16T14:58:36.317Z,39.73
2018-03-16T15:01:03.176Z,38.23
2018-03-16T15:03:30.042Z,39.90
2018-03-16T15:05:56.219Z,39.67
2018-03-16T15:08:22.337Z,36.13
2018-03-16T15:10:48.425Z,30.50
2018-03-16T15:13:14.545Z,29.57
2018-03-16T15:15:40.663Z,36.10
2018-03-16T15:18:06.777Z,35.20
2018-03-16T15:20:32.882Z,35.13
2018-03-16T15:22:59.004Z,29.87
2018-03-16T15:25:25.102Z,30.60
2018-03-16T15:27:51.178Z,32.10
2018-03-16T15:30:17.256Z,32.87
2018-03-16T15:32:44.077Z,32.20
2018-03-16T15:35:10.155Z,30.57
2018-03-16T15:37:36.223Z,32.33
2018-03-16T15:40:02.306Z,33.10
2018-03-16T15:42:29.132Z,28.97
2018-03-16T15:44:55.207Z,35.03
2018-03-16T15:47:22.024Z,29.10
2018-03-16T15:49:48.098Z,30.03
2018-03-16T15:52:14.936Z,27.37
2018-03-16T15:54:41.018Z,29.00
2018-03-16T15:57:07.088Z,30.87
2018-03-16T15:59:33.159Z,29.47
2018-03-16T16:01:59.984Z,31.47
2018-03-16T16:04:26.063Z,30.93
2018-03-16T16:06:52.138Z,31.63
2018-03-16T16:09:18.215Z,32.10
2018-03-16T16:11:44.314Z,31.47
2018-03-16T16:14:10.396Z,33.93
2018-03-16T16:16:36.491Z,31.43
2018-03-16T16:19:02.584Z,32.40
2018-03-16T16:21:29.424Z,32.63
2018-03-16T16:23:55.528Z,31.77
2018-03-16T16:26:28.311Z,30.77
2018-03-16T16:28:54.410Z,27.93
2018-03-16T16:31:20.506Z,35.37
2018-03-16T16:33:46.595Z,32.67
2018-03-16T16:36:12.680Z,37.90
2018-03-16T16:38:38.781Z,33.03
2018-03-16T16:41:04.855Z,33.40
2018-03-16T16:43:30.943Z,34.60
2018-03-16T16:45:57.771Z,30.80
2018-03-16T16:48:24.615Z,30.47
2018-03-16T16:50:50.703Z,33.00
2018-03-16T16:53:16.813Z,31.03
2018-03-16T16:55:43.639Z,29.50
2018-03-16T16:58:09.741Z,31.93
2018-03-16T17:00:35.831Z,36.63
2018-03-16T17:03:01.915Z,31.83
2018-03-16T17:05:28.023Z,31.10
2018-03-16T17:07:54.848Z,33.97
2018-03-16T17:10:20.939Z,31.03
2018-03-16T17:12:47.036Z,30.80
2018-03-16T17:15:13.123Z,27.97
2018-03-16T17:17:39.216Z,25.97
2018-03-16T17:20:05.303Z,29.10
2018-03-16T17:22:31.383Z,30.53
2018-03-16T17:25:18.230Z,28.13
2018-03-16T17:27:49.599Z,28.60
2018-03-16T17:30:45.796Z,28.07
2018-03-16T17:33:11.911Z,31.80
2018-03-16T17:35:37.995Z,36.07
2018-03-16T17:38:04.081Z,28.27
2018-03-16T17:40:30.163Z,27.40
2018-03-16T17:42:56.259Z,28.03
2018-03-16T17:45:22.356Z,31.30
2018-03-16T17:47:49.209Z,32.73
2018-03-16T17:50:16.037Z,31.33
2018-03-16T17:52:42.132Z,31.30
2018-03-16T17:55:08.207Z,33.83
2018-03-16T17:57:34.295Z,30.07
2018-03-16T18:00:00.380Z,28.93
2018-03-16T18:02:26.455Z,31.07
2018-03-16T18:04:53.279Z,34.93
2018-03-16T18:07:19.347Z,29.73
2018-03-16T18:09:46.163Z,28.83
2018-03-16T18:12:12.236Z,27.77
2018-03-16T18:14:39.118Z,28.97
2018-03-16T18:17:05.150Z,26.60
2018-03-16T18:19:31.228Z,29.47
2018-03-16T18:21:57.307Z,27.90
2018-03-16T18:24:24.143Z,28.57
2018-03-16T18:26:50.217Z,25.60
2018-03-16T18:29:16.293Z,28.17
2018-03-16T18:31:42.362Z,27.57
2018-03-16T18:34:09.225Z,27.03
2018-03-16T18:36:35.259Z,22.00
2018-03-16T18:39:02.072Z,29.17
2018-03-16T18:41:28.172Z,27.97
2018-03-16T18:43:54.246Z,27.60
2018-03-16T18:46:20.314Z,25.17
2018-03-16T18:48:46.395Z,26.67
2018-03-16T18:51:12.468Z,27.43
2018-03-16T18:53:38.586Z,25.13
2018-03-16T18:56:04.674Z,27.07
2018-03-16T18:58:31.507Z,27.57
2018-03-16T19:00:57.583Z,18.00
2018-03-16T19:03:23.684Z,28.47
2018-03-16T19:05:51.268Z,31.43
2018-03-16T19:08:17.371Z,28.43
2018-03-16T19:10:43.452Z,30.17
2018-03-16T19:13:10.295Z,28.07
2018-03-16T19:15:36.387Z,28.87
2018-03-16T19:18:02.463Z,27.67
2018-03-16T19:20:28.555Z,25.07
2018-03-16T19:22:54.640Z,25.83
2018-03-16T19:25:20.779Z,24.00
2018-03-16T19:27:46.829Z,28.10
2018-03-16T19:30:12.920Z,25.83
2018-03-16T19:32:39.004Z,24.63
2018-03-16T19:35:05.096Z,24.77
2018-03-16T19:37:31.174Z,23.03
2018-03-16T19:39:57.251Z,24.00
2018-03-16T19:42:23.340Z,25.90
2018-03-16T19:44:49.427Z,25.23
2018-03-16T19:47:15.510Z,25.57
2018-03-16T19:49:41.621Z,24.90
2018-03-16T19:52:07.707Z,25.23
2018-03-16T19:54:34.556Z,24.63
2018-03-16T19:57:00.631Z,28.37
2018-03-16T19:59:26.715Z,28.20
2018-03-16T20:01:52.796Z,28.00
2018-03-16T20:04:18.858Z,28.37
2018-03-16T20:06:44.943Z,26.37
2018-03-16T20:09:22.071Z,25.17
2018-03-16T20:11:48.151Z,24.67
2018-03-16T20:14:14.304Z,24.17
2018-03-16T20:16:40.379Z,26.20
2018-03-16T20:19:06.453Z,24.40
2018-03-16T20:21:32.527Z,27.53
2018-03-16T20:23:58.602Z,28.60
2018-03-16T20:26:24.676Z,29.27
2018-03-16T20:28:50.746Z,31.07
2018-03-16T20:31:17.567Z,30.10
2018-03-16T20:33:43.643Z,29.13
2018-03-16T20:36:10.462Z,26.60
2018-03-16T20:38:36.530Z,28.10
2018-03-16T20:41:03.331Z,29.30
2018-03-16T20:43:29.411Z,29.40
2018-03-16T20:45:56.236Z,27.90
2018-03-16T20:48:22.336Z,26.57
2018-03-16T20:50:48.407Z,24.80
2018-03-16T20:53:23.023Z,25.40
2018-03-16T20:55:49.100Z,30.67
2018-03-16T20:58:15.175Z,26.63
2018-03-16T21:00:41.987Z,25.20
2018-03-16T21:03:08.055Z,20.43
2018-03-16T21:05:34.861Z,28.77
2018-03-16T21:08:00.939Z,27.17
2018-03-16T21:10:27.011Z,27.23
2018-03-16T21:12:53.080Z,23.47
2018-03-16T21:15:19.148Z,25.63
2018-03-16T21:17:45.203Z,23.10
2018-03-16T21:20:12.046Z,22.53
2018-03-16T21:22:38.111Z,22.80
2018-03-16T21:28:28.386Z,22.53
2018-03-16T21:30:54.476Z,26.73
2018-03-16T21:33:21.296Z,24.73
2018-03-16T21:35:47.388Z,22.50
2018-03-16T21:38:13.463Z,21.63
2018-03-16T21:40:39.527Z,23.87
2018-03-16T21:43:06.347Z,26.43
2018-03-16T21:45:32.427Z,24.97
2018-03-16T21:47:59.254Z,23.50
2018-03-16T21:50:25.323Z,23.53
2018-03-16T21:52:52.163Z,24.30
2018-03-16T21:55:18.255Z,18.43
2018-03-16T21:57:44.363Z,22.30
2018-03-16T22:00:14.056Z,21.43
2018-03-16T22:02:45.560Z,23.73
2018-03-16T22:08:16.842Z,23.37
2018-03-16T22:10:42.932Z,24.00
2018-03-16T22:13:09.015Z,21.07
2018-03-16T22:21:49.643Z,24.10
2018-03-16T22:24:26.692Z,22.17
2018-03-16T22:27:17.975Z,11.07
2018-03-16T22:30:13.973Z,25.10
2018-03-16T22:32:50.837Z,21.73
2018-03-16T22:35:22.475Z,20.50
2018-03-16T22:37:48.555Z,19.87
2018-03-16T22:40:36.574Z,22.33
2018-03-16T22:55:05.403Z,18.63
2018-03-16T23:00:51.768Z,23.27
2018-03-16T23:03:29.299Z,17.20
2018-03-16T23:06:02.616Z,21.13
2018-03-16T23:08:30.759Z,17.47
2018-03-16T23:10:59.647Z,17.23
2018-03-16T23:16:33.976Z,16.73
2018-03-16T23:19:00.166Z,17.37
2018-03-16T23:24:31.879Z,16.00
2018-03-16T23:33:10.615Z,14.33
2018-03-16T23:35:51.335Z,14.33
2018-03-16T23:41:48.929Z,18.20
2018-03-16T23:47:20.563Z,15.90
